sensor_id;sensor_type;location;lat;lon;timestamp;pressure;altitude;pressure_sealevel;temperature;humidity
68193;BME280;55012;47.562;18.414;2022-08-21T00:02:27;98099.19;;;17.32;100.00
68193;BME280;55012;47.562;18.414;2022-08-21T00:04:53;98158.13;;;17.33;100.00
68193;BME280;55012;47.562;18.414;2022-08-21T00:07:20;98142.94;;;17.32;100.00
68193;BME280;55012;47.562;18.414;2022-08-21T00:09:46;98112.50;;;17.30;100.00
68193;BME280;55012;47.562;18.414;2022-08-21T00:12:12;98125.81;;;17.28;100.00
68193;BME280;55012;47.562;18.414;2022-08-21T00:14:38;98112.09;;;17.31;100.00
68193;BME280;55012;47.562;18.414;2022-08-21T00:17:04;98108.94;;;17.33;100.00
68193;BME280;55012;47.562;18.414;2022-08-21T00:19:30;98112.50;;;17.30;100.00
68193;BME280;55012;47.562;18.414;2022-08-21T00:21:56;98119.13;;;17.29;100.00
68193;BME280;55012;47.562;18.414;2022-08-21T00:24:23;98112.56;;;17.26;100.00
68193;BME280;55012;47.562;18.414;2022-08-21T00:26:49;98128.66;;;17.21;100.00
68193;BME280;55012;47.562;18.414;2022-08-21T00:29:15;98129.44;;;17.21;100.00
68193;BME280;55012;47.562;18.414;2022-08-21T00:31:42;98128.66;;;17.21;100.00
68193;BME280;55012;47.562;18.414;2022-08-21T00:34:08;98118.50;;;17.21;100.00
68193;BME280;55012;47.562;18.414;2022-08-21T00:36:35;98174.34;;;17.20;100.00
68193;BME280;55012;47.562;18.414;2022-08-21T00:39:00;98127.19;;;17.16;100.00
68193;BME280;55012;47.562;18.414;2022-08-21T00:41:27;98106.84;;;17.17;100.00
68193;BME280;55012;47.562;18.414;2022-08-21T00:43:54;98090.03;;;17.19;100.00
68193;BME280;55012;47.562;18.414;2022-08-21T00:46:20;98118.97;;;17.16;100.00
68193;BME280;55012;47.562;18.414;2022-08-21T00:48:46;98117.38;;;17.19;100.00
68193;BME280;55012;47.562;18.414;2022-08-21T00:51:36;98111.09;;;17.22;100.00
68193;BME280;55012;47.562;18.414;2022-08-21T00:54:05;98106.00;;;17.20;100.00
68193;BME280;55012;47.562;18.414;2022-08-21T00:56:31;98120.09;;;17.19;100.00
68193;BME280;55012;47.562;18.414;2022-08-21T00:58:57;98107.63;;;17.18;100.00
68193;BME280;55012;47.562;18.414;2022-08-21T01:01:25;98124.78;;;17.18;100.00
68193;BME280;55012;47.562;18.414;2022-08-21T01:03:51;98136.16;;;17.17;100.00
68193;BME280;55012;47.562;18.414;2022-08-21T01:06:16;98125.22;;;17.17;100.00
68193;BME280;55012;47.562;18.414;2022-08-21T01:08:42;98146.66;;;17.18;100.00
68193;BME280;55012;47.562;18.414;2022-08-21T01:11:08;98142.38;;;17.17;100.00
68193;BME280;55012;47.562;18.414;2022-08-21T01:13:36;98169.28;;;17.19;100.00
68193;BME280;55012;47.562;18.414;2022-08-21T01:16:04;98161.50;;;17.17;100.00
68193;BME280;55012;47.562;18.414;2022-08-21T01:18:33;98136.06;;;17.20;100.00
68193;BME280;55012;47.562;18.414;2022-08-21T01:21:09;98164.59;;;17.19;100.00
68193;BME280;55012;47.562;18.414;2022-08-21T01:23:36;98129.84;;;17.20;100.00
68193;BME280;55012;47.562;18.414;2022-08-21T01:26:02;98138.88;;;17.17;100.00
68193;BME280;55012;47.562;18.414;2022-08-21T01:28:31;98156.47;;;17.16;100.00
68193;BME280;55012;47.562;18.414;2022-08-21T01:31:00;98122.91;;;17.15;100.00
68193;BME280;55012;47.562;18.414;2022-08-21T01:33:26;98105.31;;;17.16;100.00
68193;BME280;55012;47.562;18.414;2022-08-21T01:35:52;98109.66;;;17.13;100.00
68193;BME280;55012;47.562;18.414;2022-08-21T01:38:18;98121.72;;;17.16;100.00
68193;BME280;55012;47.562;18.414;2022-08-21T01:40:43;98130.69;;;17.17;100.00
68193;BME280;55012;47.562;18.414;2022-08-21T01:43:09;98121.25;;;17.21;100.00
68193;BME280;55012;47.562;18.414;2022-08-21T01:45:35;98124.78;;;17.18;100.00
68193;BME280;55012;47.562;18.414;2022-08-21T01:48:01;98139.22;;;17.19;100.00
68193;BME280;55012;47.562;18.414;2022-08-21T01:50:27;98103.28;;;17.20;100.00
68193;BME280;55012;47.562;18.414;2022-08-21T01:52:53;98118.91;;;17.20;100.00
68193;BME280;55012;47.562;18.414;2022-08-21T01:55:19;98109.59;;;17.17;100.00
68193;BME280;55012;47.562;18.414;2022-08-21T01:57:46;98126.44;;;17.12;100.00
68193;BME280;55012;47.562;18.414;2022-08-21T02:00:13;98130.69;;;17.17;100.00
68193;BME280;55012;47.562;18.414;2022-08-21T02:02:40;98089.63;;;17.20;100.00
68193;BME280;55012;47.562;18.414;2022-08-21T02:05:08;98111.47;;;17.20;100.00
68193;BME280;55012;47.562;18.414;2022-08-21T02:07:44;98119.69;;;17.20;100.00
68193;BME280;55012;47.562;18.414;2022-08-21T02:10:13;98100.94;;;17.22;100.00
68193;BME280;55012;47.562;18.414;2022-08-21T02:12:38;98115.72;;;17.25;100.00
68193;BME280;55012;47.562;18.414;2022-08-21T02:15:05;98121.25;;;17.21;100.00
68193;BME280;55012;47.562;18.414;2022-08-21T02:17:52;98106.78;;;17.21;100.00
68193;BME280;55012;47.562;18.414;2022-08-21T02:20:22;98119.22;;;17.25;100.00
68193;BME280;55012;47.562;18.414;2022-08-21T02:22:48;98100.50;;;17.24;100.00
68193;BME280;55012;47.562;18.414;2022-08-21T02:25:15;98107.22;;;17.19;100.00
68193;BME280;55012;47.562;18.414;2022-08-21T02:27:43;98097.41;;;17.22;100.00
68193;BME280;55012;47.562;18.414;2022-08-21T02:30:18;98107.59;;;17.21;100.00
68193;BME280;55012;47.562;18.414;2022-08-21T02:32:44;98115.38;;;17.23;100.00
68193;BME280;55012;47.562;18.414;2022-08-21T02:35:10;98105.13;;;17.27;100.00
68193;BME280;55012;47.562;18.414;2022-08-21T02:37:54;98100.50;;;17.24;100.00
68193;BME280;55012;47.562;18.414;2022-08-21T02:40:23;98100.16;;;17.22;100.00
68193;BME280;55012;47.562;18.414;2022-08-21T02:42:49;98106.78;;;17.21;100.00
68193;BME280;55012;47.562;18.414;2022-08-21T02:45:15;98131.03;;;17.19;100.00
68193;BME280;55012;47.562;18.414;2022-08-21T02:47:53;98105.31;;;17.16;100.00
68193;BME280;55012;47.562;18.414;2022-08-21T02:50:25;98128.03;;;17.13;100.00
68193;BME280;55012;47.562;18.414;2022-08-21T02:52:51;98108.91;;;17.13;100.00
68193;BME280;55012;47.562;18.414;2022-08-21T02:55:18;98132.28;;;17.14;100.00
68193;BME280;55012;47.562;18.414;2022-08-21T02:57:46;98119.44;;;17.11;100.00
68193;BME280;55012;47.562;18.414;2022-08-21T03:00:13;98141.69;;;17.13;100.00
68193;BME280;55012;47.562;18.414;2022-08-21T03:02:39;98133.88;;;17.11;100.00
68193;BME280;55012;47.562;18.414;2022-08-21T03:05:06;98142.06;;;17.11;100.00
68193;BME280;55012;47.562;18.414;2022-08-21T03:07:32;98134.66;;;17.12;100.00
68193;BME280;55012;47.562;18.414;2022-08-21T03:09:58;98142.84;;;17.12;100.00
68193;BME280;55012;47.562;18.414;2022-08-21T03:12:24;98135.84;;;17.11;100.00
68193;BME280;55012;47.562;18.414;2022-08-21T03:14:50;98140.13;;;17.12;100.00
68193;BME280;55012;47.562;18.414;2022-08-21T03:17:15;98143.22;;;17.14;100.00
68193;BME280;55012;47.562;18.414;2022-08-21T03:19:41;98156.56;;;17.08;100.00
68193;BME280;55012;47.562;18.414;2022-08-21T03:22:06;98168.34;;;17.05;100.00
68193;BME280;55012;47.562;18.414;2022-08-21T03:24:32;98174.59;;;17.06;100.00
68193;BME280;55012;47.562;18.414;2022-08-21T03:26:57;98162.47;;;17.07;100.00
68193;BME280;55012;47.562;18.414;2022-08-21T03:29:23;98161.19;;;17.11;100.00
68193;BME280;55012;47.562;18.414;2022-08-21T03:31:48;98159.63;;;17.14;100.00
68193;BME280;55012;47.562;18.414;2022-08-21T03:34:14;98168.59;;;17.15;100.00
68193;BME280;55012;47.562;18.414;2022-08-21T03:36:39;98167.81;;;17.14;100.00
68193;BME280;55012;47.562;18.414;2022-08-21T03:39:05;98172.44;;;17.17;100.00
68193;BME280;55012;47.562;18.414;2022-08-21T03:41:31;98177.16;;;17.17;100.00
68193;BME280;55012;47.562;18.414;2022-08-21T03:43:56;98157.28;;;17.12;100.00
68193;BME280;55012;47.562;18.414;2022-08-21T03:46:22;98165.91;;;17.11;100.00
68193;BME280;55012;47.562;18.414;2022-08-21T03:48:47;98160.09;;;17.09;100.00
68193;BME280;55012;47.562;18.414;2022-08-21T03:51:13;98167.50;;;17.08;100.00
68193;BME280;55012;47.562;18.414;2022-08-21T03:53:39;98164.78;;;17.08;100.00
68193;BME280;55012;47.562;18.414;2022-08-21T03:56:05;98158.91;;;17.10;100.00
68193;BME280;55012;47.562;18.414;2022-08-21T03:58:31;98174.88;;;17.11;100.00
68193;BME280;55012;47.562;18.414;2022-08-21T04:00:59;98176.13;;;17.07;100.00
68193;BME280;55012;47.562;18.414;2022-08-21T04:03:26;98170.31;;;17.05;100.00
68193;BME280;55012;47.562;18.414;2022-08-21T04:05:52;98167.19;;;17.03;100.00
68193;BME280;55012;47.562;18.414;2022-08-21T04:08:18;98159.72;;;17.07;100.00
68193;BME280;55012;47.562;18.414;2022-08-21T04:10:45;98155.81;;;17.08;100.00
68193;BME280;55012;47.562;18.414;2022-08-21T04:13:11;98175.78;;;17.05;100.00
68193;BME280;55012;47.562;18.414;2022-08-21T04:15:37;98164.03;;;17.04;100.00
68193;BME280;55012;47.562;18.414;2022-08-21T04:18:04;98173.81;;;17.05;100.00
68193;BME280;55012;47.562;18.414;2022-08-21T04:20:30;98178.13;;;17.03;100.00
68193;BME280;55012;47.562;18.414;2022-08-21T04:22:56;98169.13;;;17.06;100.00
68193;BME280;55012;47.562;18.414;2022-08-21T04:25:22;98186.56;;;17.12;100.00
68193;BME280;55012;47.562;18.414;2022-08-21T04:27:50;98168.22;;;17.12;100.00
68193;BME280;55012;47.562;18.414;2022-08-21T04:30:16;98170.59;;;17.10;100.00
68193;BME280;55012;47.562;18.414;2022-08-21T04:32:46;98175.25;;;17.13;100.00
68193;BME280;55012;47.562;18.414;2022-08-21T04:35:14;98182.28;;;17.11;100.00
68193;BME280;55012;47.562;18.414;2022-08-21T04:37:39;98180.41;;;17.08;100.00
68193;BME280;55012;47.562;18.414;2022-08-21T04:40:06;98179.97;;;17.09;100.00
68193;BME280;55012;47.562;18.414;2022-08-21T04:42:32;98186.94;;;17.14;100.00
68193;BME280;55012;47.562;18.414;2022-08-21T04:44:57;98180.34;;;17.11;100.00
68193;BME280;55012;47.562;18.414;2022-08-21T04:47:24;98184.69;;;17.09;100.00
68193;BME280;55012;47.562;18.414;2022-08-21T04:49:50;98185.09;;;17.07;100.00
68193;BME280;55012;47.562;18.414;2022-08-21T04:52:18;98191.75;;;17.06;100.00
68193;BME280;55012;47.562;18.414;2022-08-21T04:54:45;98204.25;;;17.04;100.00
68193;BME280;55012;47.562;18.414;2022-08-21T04:57:15;98216.09;;;16.97;100.00
68193;BME280;55012;47.562;18.414;2022-08-21T04:59:44;98216.47;;;16.96;100.00
68193;BME280;55012;47.562;18.414;2022-08-21T05:02:11;98194.63;;;16.96;100.00
68193;BME280;55012;47.562;18.414;2022-08-21T05:04:45;98188.75;;;16.97;100.00
68193;BME280;55012;47.562;18.414;2022-08-21T05:07:16;98204.41;;;16.93;100.00
68193;BME280;55012;47.562;18.414;2022-08-21T05:09:44;98209.13;;;16.93;100.00
68193;BME280;55012;47.562;18.414;2022-08-21T05:12:10;98222.34;;;16.94;100.00
68193;BME280;55012;47.562;18.414;2022-08-21T05:14:36;98207.13;;;16.97;100.00
68193;BME280;55012;47.562;18.414;2022-08-21T05:17:02;98213.72;;;16.99;100.00
68193;BME280;55012;47.562;18.414;2022-08-21T05:19:27;98224.63;;;16.99;100.00
68193;BME280;55012;47.562;18.414;2022-08-21T05:21:53;98225.81;;;16.98;100.00
68193;BME280;55012;47.562;18.414;2022-08-21T05:24:19;98202.78;;;16.99;100.00
68193;BME280;55012;47.562;18.414;2022-08-21T05:26:44;98223.44;;;17.00;100.00
68193;BME280;55012;47.562;18.414;2022-08-21T05:29:11;98207.81;;;17.01;100.00
68193;BME280;55012;47.562;18.414;2022-08-21T05:31:37;98212.09;;;17.02;100.00
68193;BME280;55012;47.562;18.414;2022-08-21T05:34:03;98211.38;;;16.98;100.00
68193;BME280;55012;47.562;18.414;2022-08-21T05:36:29;98233.25;;;16.98;100.00
68193;BME280;55012;47.562;18.414;2022-08-21T05:38:55;98223.03;;;17.02;100.00
68193;BME280;55012;47.562;18.414;2022-08-21T05:41:21;98229.31;;;16.99;100.00
68193;BME280;55012;47.562;18.414;2022-08-21T05:43:46;98219.94;;;17.00;100.00
68193;BME280;55012;47.562;18.414;2022-08-21T05:46:12;98226.19;;;17.00;100.00
68193;BME280;55012;47.562;18.414;2022-08-21T05:48:37;98226.44;;;17.09;100.00
68193;BME280;55012;47.562;18.414;2022-08-21T05:51:08;98234.53;;;17.17;100.00
68193;BME280;55012;47.562;18.414;2022-08-21T05:53:35;98224.38;;;17.17;100.00
68193;BME280;55012;47.562;18.414;2022-08-21T05:56:01;98228.75;;;17.11;100.00
68193;BME280;55012;47.562;18.414;2022-08-21T05:58:29;98220.09;;;17.16;100.00
68193;BME280;55012;47.562;18.414;2022-08-21T06:00:55;98215.31;;;17.24;100.00
68193;BME280;55012;47.562;18.414;2022-08-21T06:03:26;98232.22;;;17.15;100.00
68193;BME280;55012;47.562;18.414;2022-08-21T06:05:52;98225.59;;;17.12;100.00
68193;BME280;55012;47.562;18.414;2022-08-21T06:08:19;98241.19;;;17.16;100.00
68193;BME280;55012;47.562;18.414;2022-08-21T06:10:46;98240.41;;;17.15;100.00
68193;BME280;55012;47.562;18.414;2022-08-21T06:13:12;98242.72;;;17.17;100.00
68193;BME280;55012;47.562;18.414;2022-08-21T06:15:38;98249.38;;;17.16;100.00
68193;BME280;55012;47.562;18.414;2022-08-21T06:18:05;98247.78;;;17.18;100.00
68193;BME280;55012;47.562;18.414;2022-08-21T06:20:31;98246.66;;;17.16;100.00
68193;BME280;55012;47.562;18.414;2022-08-21T06:22:57;98228.91;;;17.27;100.00
68193;BME280;55012;47.562;18.414;2022-08-21T06:25:24;98238.25;;;17.30;100.00
68193;BME280;55012;47.562;18.414;2022-08-21T06:27:50;98223.41;;;17.31;100.00
68193;BME280;55012;47.562;18.414;2022-08-21T06:30:16;98224.94;;;17.32;100.00
68193;BME280;55012;47.562;18.414;2022-08-21T06:32:42;98214.34;;;17.34;100.00
68193;BME280;55012;47.562;18.414;2022-08-21T06:35:08;98207.94;;;17.44;100.00
68193;BME280;55012;47.562;18.414;2022-08-21T06:37:33;98207.16;;;17.44;100.00
68193;BME280;55012;47.562;18.414;2022-08-21T06:39:59;98218.94;;;17.40;100.00
68193;BME280;55012;47.562;18.414;2022-08-21T06:42:25;98215.84;;;17.38;100.00
68193;BME280;55012;47.562;18.414;2022-08-21T06:44:52;98212.97;;;17.46;100.00
68193;BME280;55012;47.562;18.414;2022-08-21T06:47:17;98209.31;;;17.56;100.00
68193;BME280;55012;47.562;18.414;2022-08-21T06:49:43;98208.91;;;17.57;100.00
68193;BME280;55012;47.562;18.414;2022-08-21T06:52:12;98224.47;;;17.60;100.00
68193;BME280;55012;47.562;18.414;2022-08-21T06:54:38;98206.94;;;17.58;100.00
68193;BME280;55012;47.562;18.414;2022-08-21T06:57:04;98207.72;;;17.58;100.00
68193;BME280;55012;47.562;18.414;2022-08-21T06:59:30;98198.63;;;17.65;100.00
68193;BME280;55012;47.562;18.414;2022-08-21T07:01:57;98204.00;;;17.68;100.00
68193;BME280;55012;47.562;18.414;2022-08-21T07:04:23;98200.41;;;17.75;100.00
68193;BME280;55012;47.562;18.414;2022-08-21T07:06:49;98196.06;;;17.78;100.00
68193;BME280;55012;47.562;18.414;2022-08-21T07:09:15;98209.03;;;17.74;100.00
68193;BME280;55012;47.562;18.414;2022-08-21T07:11:42;98194.94;;;17.75;100.00
68193;BME280;55012;47.562;18.414;2022-08-21T07:14:08;98196.91;;;17.75;100.00
68193;BME280;55012;47.562;18.414;2022-08-21T07:16:33;98222.75;;;17.70;100.00
68193;BME280;55012;47.562;18.414;2022-08-21T07:18:59;98202.13;;;17.65;100.00
68193;BME280;55012;47.562;18.414;2022-08-21T07:21:24;98214.56;;;17.70;100.00
68193;BME280;55012;47.562;18.414;2022-08-21T07:23:51;98218.38;;;17.76;100.00
68193;BME280;55012;47.562;18.414;2022-08-21T07:26:18;98213.50;;;17.87;100.00
68193;BME280;55012;47.562;18.414;2022-08-21T07:28:46;98184.03;;;17.95;100.00
68193;BME280;55012;47.562;18.414;2022-08-21T07:31:14;98198.47;;;17.95;100.00
68193;BME280;55012;47.562;18.414;2022-08-21T07:33:41;98203.53;;;17.97;100.00
68193;BME280;55012;47.562;18.414;2022-08-21T07:36:07;98219.59;;;17.95;100.00
68193;BME280;55012;47.562;18.414;2022-08-21T07:38:34;98207.94;;;17.91;100.00
68193;BME280;55012;47.562;18.414;2022-08-21T07:41:01;98216.50;;;17.93;100.00
68193;BME280;55012;47.562;18.414;2022-08-21T07:43:28;98208.66;;;17.95;100.00
68193;BME280;55012;47.562;18.414;2022-08-21T07:45:54;98227.44;;;17.93;100.00
68193;BME280;55012;47.562;18.414;2022-08-21T07:48:21;98217.28;;;17.93;100.00
68193;BME280;55012;47.562;18.414;2022-08-21T07:50:47;98235.97;;;17.99;100.00
68193;BME280;55012;47.562;18.414;2022-08-21T07:53:13;98233.22;;;17.99;100.00
68193;BME280;55012;47.562;18.414;2022-08-21T07:55:39;98231.06;;;18.10;100.00
68193;BME280;55012;47.562;18.414;2022-08-21T07:58:05;98224.69;;;18.16;100.00
68193;BME280;55012;47.562;18.414;2022-08-21T08:00:32;98212.09;;;18.19;100.00
68193;BME280;55012;47.562;18.414;2022-08-21T08:02:58;98201.25;;;18.15;100.00
68193;BME280;55012;47.562;18.414;2022-08-21T08:05:27;98198.41;;;18.19;100.00
68193;BME280;55012;47.562;18.414;2022-08-21T08:07:53;98195.97;;;18.24;100.00
68193;BME280;55012;47.562;18.414;2022-08-21T08:10:19;98184.59;;;18.26;100.00
68193;BME280;55012;47.562;18.414;2022-08-21T08:12:46;98192.47;;;18.24;100.00
68193;BME280;55012;47.562;18.414;2022-08-21T08:15:16;98182.00;;;18.19;100.00
68193;BME280;55012;47.562;18.414;2022-08-21T08:17:42;98183.53;;;18.20;100.00
68193;BME280;55012;47.562;18.414;2022-08-21T08:20:10;98181.88;;;18.26;100.00
68193;BME280;55012;47.562;18.414;2022-08-21T08:22:36;98185.94;;;18.38;100.00
68193;BME280;55012;47.562;18.414;2022-08-21T08:25:03;98177.84;;;18.50;100.00
68193;BME280;55012;47.562;18.414;2022-08-21T08:27:30;98163.66;;;18.56;100.00
68193;BME280;55012;47.562;18.414;2022-08-21T08:29:55;98160.63;;;18.70;100.00
68193;BME280;55012;47.562;18.414;2022-08-21T08:32:21;98158.25;;;18.72;100.00
68193;BME280;55012;47.562;18.414;2022-08-21T08:34:48;98150.38;;;18.74;100.00
68193;BME280;55012;47.562;18.414;2022-08-21T08:37:14;98152.06;;;18.68;100.00
68193;BME280;55012;47.562;18.414;2022-08-21T08:39:40;98146.59;;;18.68;100.00
68193;BME280;55012;47.562;18.414;2022-08-21T08:42:09;98152.50;;;18.66;100.00
68193;BME280;55012;47.562;18.414;2022-08-21T08:44:42;98147.41;;;18.65;100.00
68193;BME280;55012;47.562;18.414;2022-08-21T08:47:10;98154.09;;;18.64;100.00
68193;BME280;55012;47.562;18.414;2022-08-21T08:49:47;98148.56;;;18.67;100.00
68193;BME280;55012;47.562;18.414;2022-08-21T08:52:28;98162.81;;;18.78;100.00
68193;BME280;55012;47.562;18.414;2022-08-21T08:55:07;98145.41;;;18.85;100.00
68193;BME280;55012;47.562;18.414;2022-08-21T08:57:35;98137.19;;;19.01;100.00
68193;BME280;55012;47.562;18.414;2022-08-21T09:00:08;98130.63;;;19.15;100.00
68193;BME280;55012;47.562;18.414;2022-08-21T09:02:39;98104.38;;;19.30;100.00
68193;BME280;55012;47.562;18.414;2022-08-21T09:05:06;98085.16;;;19.47;100.00
68193;BME280;55012;47.562;18.414;2022-08-21T09:07:43;98068.69;;;19.63;100.00
68193;BME280;55012;47.562;18.414;2022-08-21T09:10:20;98043.13;;;19.66;100.00
68193;BME280;55012;47.562;18.414;2022-08-21T09:18:09;98047.59;;;19.60;100.00
68193;BME280;55012;47.562;18.414;2022-08-21T09:20:48;98039.03;;;19.58;100.00
68193;BME280;55012;47.562;18.414;2022-08-21T09:26:04;98062.94;;;19.57;100.00
68193;BME280;55012;47.562;18.414;2022-08-21T09:28:35;98050.56;;;19.66;100.00
68193;BME280;55012;47.562;18.414;2022-08-21T09:31:05;98054.34;;;19.72;100.00
68193;BME280;55012;47.562;18.414;2022-08-21T09:33:32;98054.78;;;19.70;100.00
68193;BME280;55012;47.562;18.414;2022-08-21T09:35:58;98028.44;;;19.73;100.00
68193;BME280;55012;47.562;18.414;2022-08-21T09:38:33;98040.22;;;19.99;100.00
68193;BME280;55012;47.562;18.414;2022-08-21T09:41:05;98012.16;;;20.20;100.00
68193;BME280;55012;47.562;18.414;2022-08-21T09:43:31;97980.50;;;20.28;100.00
68193;BME280;55012;47.562;18.414;2022-08-21T09:46:12;97944.00;;;20.40;100.00
68193;BME280;55012;47.562;18.414;2022-08-21T09:48:47;97922.31;;;20.68;100.00
68193;BME280;55012;47.562;18.414;2022-08-21T09:51:34;97884.00;;;20.86;100.00
68193;BME280;55012;47.562;18.414;2022-08-21T09:59:18;97798.53;;;20.93;100.00
68193;BME280;55012;47.562;18.414;2022-08-21T10:01:47;97762.72;;;21.06;100.00
68193;BME280;55012;47.562;18.414;2022-08-21T10:04:13;97737.34;;;21.02;100.00
68193;BME280;55012;47.562;18.414;2022-08-21T10:06:39;97735.41;;;21.12;100.00
68193;BME280;55012;47.562;18.414;2022-08-21T10:09:06;97721.22;;;21.22;100.00
68193;BME280;55012;47.562;18.414;2022-08-21T10:11:32;97698.91;;;21.20;100.00
68193;BME280;55012;47.562;18.414;2022-08-21T10:17:01;97671.47;;;21.39;100.00
68193;BME280;55012;47.562;18.414;2022-08-21T10:22:40;97642.34;;;21.69;100.00
68193;BME280;55012;47.562;18.414;2022-08-21T10:25:13;97605.00;;;21.68;100.00
68193;BME280;55012;47.562;18.414;2022-08-21T10:30:21;97599.84;;;21.61;100.00
68193;BME280;55012;47.562;18.414;2022-08-21T10:36:13;97610.38;;;21.62;100.00
68193;BME280;55012;47.562;18.414;2022-08-21T10:38:46;97609.00;;;21.48;100.00
68193;BME280;55012;47.562;18.414;2022-08-21T10:43:54;97639.41;;;21.45;100.00
68193;BME280;55012;47.562;18.414;2022-08-21T10:49:42;97649.50;;;21.48;100.00
68193;BME280;55012;47.562;18.414;2022-08-21T10:55:17;97645.53;;;21.67;100.00
68193;BME280;55012;47.562;18.414;2022-08-21T11:00:20;97677.44;;;21.28;100.00
68193;BME280;55012;47.562;18.414;2022-08-21T11:05:33;97744.00;;;21.23;100.00
68193;BME280;55012;47.562;18.414;2022-08-21T11:08:12;97759.19;;;21.27;100.00
68193;BME280;55012;47.562;18.414;2022-08-21T11:10:47;97742.06;;;21.33;100.00
68193;BME280;55012;47.562;18.414;2022-08-21T11:15:56;97799.63;;;20.96;100.00
68193;BME280;55012;47.562;18.414;2022-08-21T11:18:29;97845.25;;;20.93;100.00
68193;BME280;55012;47.562;18.414;2022-08-21T11:21:04;97854.19;;;20.85;100.00
68193;BME280;55012;47.562;18.414;2022-08-21T11:23:52;97877.00;;;20.85;100.00
68193;BME280;55012;47.562;18.414;2022-08-21T11:27:05;97873.09;;;20.95;100.00
68193;BME280;55012;47.562;18.414;2022-08-21T11:29:36;97883.69;;;20.84;100.00
68193;BME280;55012;47.562;18.414;2022-08-21T11:45:53;97962.25;;;20.60;100.00
68193;BME280;55012;47.562;18.414;2022-08-21T11:48:40;97975.78;;;20.54;100.00
68193;BME280;55012;47.562;18.414;2022-08-21T11:51:14;98008.09;;;20.50;100.00
68193;BME280;55012;47.562;18.414;2022-08-21T11:54:05;97998.88;;;20.44;100.00
68193;BME280;55012;47.562;18.414;2022-08-21T11:56:38;98028.31;;;20.43;100.00
68193;BME280;55012;47.562;18.414;2022-08-21T11:59:32;98025.56;;;20.43;100.00
68193;BME280;55012;47.562;18.414;2022-08-21T12:02:00;98022.81;;;20.43;100.00
68193;BME280;55012;47.562;18.414;2022-08-21T12:04:27;98034.03;;;20.49;100.00
68193;BME280;55012;47.562;18.414;2022-08-21T12:06:54;98042.16;;;20.53;100.00
68193;BME280;55012;47.562;18.414;2022-08-21T12:11:59;98040.72;;;20.48;100.00
68193;BME280;55012;47.562;18.414;2022-08-21T12:14:39;98029.75;;;20.48;100.00
68193;BME280;55012;47.562;18.414;2022-08-21T12:17:07;98031.19;;;20.53;100.00
68193;BME280;55012;47.562;18.414;2022-08-21T12:19:33;98020.38;;;20.58;100.00
68193;BME280;55012;47.562;18.414;2022-08-21T12:24:38;97990.25;;;20.67;100.00
68193;BME280;55012;47.562;18.414;2022-08-21T12:27:21;97976.66;;;20.64;100.00
68193;BME280;55012;47.562;18.414;2022-08-21T12:30:04;97961.91;;;20.58;100.00
68193;BME280;55012;47.562;18.414;2022-08-21T12:35:14;97976.75;;;20.60;100.00
68193;BME280;55012;47.562;18.414;2022-08-21T12:37:44;97982.25;;;20.60;100.00
68193;BME280;55012;47.562;18.414;2022-08-21T12:40:23;97978.19;;;20.65;100.00
68193;BME280;55012;47.562;18.414;2022-08-21T12:42:52;97981.25;;;20.67;100.00
68193;BME280;55012;47.562;18.414;2022-08-21T12:46:02;97977.84;;;20.63;100.00
68193;BME280;55012;47.562;18.414;2022-08-21T12:50:54;97959.16;;;20.70;100.00
68193;BME280;55012;47.562;18.414;2022-08-21T12:55:47;97955.97;;;20.72;100.00
68193;BME280;55012;47.562;18.414;2022-08-21T12:58:20;97944.19;;;20.71;100.00
68193;BME280;55012;47.562;18.414;2022-08-21T13:00:53;97934.22;;;20.65;100.00
68193;BME280;55012;47.562;18.414;2022-08-21T13:03:21;97942.59;;;20.61;100.00
68193;BME280;55012;47.562;18.414;2022-08-21T13:05:47;97955.88;;;20.63;100.00
68193;BME280;55012;47.562;18.414;2022-08-21T13:08:16;97955.97;;;20.59;100.00
68193;BME280;55012;47.562;18.414;2022-08-21T13:10:47;97963.13;;;20.57;100.00
68193;BME280;55012;47.562;18.414;2022-08-21T13:13:21;97972.03;;;20.61;100.00
68193;BME280;55012;47.562;18.414;2022-08-21T13:15:47;97981.47;;;20.60;100.00
68193;BME280;55012;47.562;18.414;2022-08-21T13:18:22;98013.47;;;20.54;100.00
68193;BME280;55012;47.562;18.414;2022-08-21T13:20:48;98078.81;;;20.33;100.00
68193;BME280;55012;47.562;18.414;2022-08-21T13:23:24;98151.69;;;19.96;100.00
68193;BME280;55012;47.562;18.414;2022-08-21T13:25:50;98218.81;;;19.62;100.00
68193;BME280;55012;47.562;18.414;2022-08-21T13:28:16;98260.09;;;19.39;100.00
68193;BME280;55012;47.562;18.414;2022-08-21T13:30:49;98277.56;;;19.29;100.00
68193;BME280;55012;47.562;18.414;2022-08-21T13:33:18;98293.66;;;19.27;100.00
68193;BME280;55012;47.562;18.414;2022-08-21T13:38:30;98297.38;;;19.36;100.00
68193;BME280;55012;47.562;18.414;2022-08-21T13:41:18;98280.69;;;19.47;100.00
68193;BME280;55012;47.562;18.414;2022-08-21T13:43:51;98255.13;;;19.50;100.00
68193;BME280;55012;47.562;18.414;2022-08-21T13:46:21;98248.88;;;19.50;100.00
68193;BME280;55012;47.562;18.414;2022-08-21T13:48:47;98240.72;;;19.46;100.00
68193;BME280;55012;47.562;18.414;2022-08-21T13:51:13;98224.00;;;19.41;100.00
68193;BME280;55012;47.562;18.414;2022-08-21T13:56:21;98229.22;;;19.35;100.00
68193;BME280;55012;47.562;18.414;2022-08-21T13:58:47;98245.84;;;19.28;100.00
68193;BME280;55012;47.562;18.414;2022-08-21T14:01:22;98237.88;;;19.17;100.00
68193;BME280;55012;47.562;18.414;2022-08-21T14:03:50;98249.38;;;19.12;100.00